Time;durP1;ratioP1;P1;durP2;ratioP2;P2;SDS_P1;SDS_P2;PMS_P1;PMS_P2;Temp;Humidity;BMP_temperature;BMP_pressure;BME280_temperature;BME280_humidity;BME280_pressure;Samples;Min_cycle;Max_cycle;Signal;HPM_P1;HPM_P2
2022/05/11 00:01:49;;;;;;;9.15;4.45;;;;;;;-148.88;66.91;75196.34;5018631;28;20036;-82
2022/05/11 00:04:16;;;;;;;6.78;3.85;;;;;;;-148.88;67.29;75184.16;5019092;28;20475;-82
2022/05/11 00:06:42;;;;;;;7.85;4.05;;;;;;;-148.88;67.29;75192.28;5036544;28;20037;-81
2022/05/11 00:09:09;;;;;;;5.18;3.78;;;;;;;-148.88;66.86;75192.28;5018850;28;20433;-82
2022/05/11 00:11:36;;;;;;;5.65;4.13;;;;;;;-148.88;65.88;75184.16;5018944;28;20029;-82
2022/05/11 00:14:02;;;;;;;8.55;3.75;;;;;;;-148.88;65.91;75176.03;5018588;28;20029;-82
2022/05/11 00:16:28;;;;;;;7.65;3.85;;;;;;;-148.88;66.32;75176.03;5036557;28;20101;-82
2022/05/11 00:18:54;;;;;;;10.57;4.20;;;;;;;-148.88;66.09;75186.19;5018576;28;20032;-82
2022/05/11 00:21:19;;;;;;;5.97;3.70;;;;;;;-148.88;65.61;75188.22;5018762;28;20029;-82
2022/05/11 00:23:45;;;;;;;7.38;4.57;;;;;;;-148.88;65.28;75188.22;5035960;28;20017;-81
2022/05/11 00:26:11;;;;;;;8.80;4.03;;;;;;;-148.88;64.94;75174.00;5018213;28;20022;-82
2022/05/11 00:28:36;;;;;;;6.60;3.95;;;;;;;-148.88;64.96;75167.91;5018364;28;20028;-82
2022/05/11 00:31:02;;;;;;;8.23;3.83;;;;;;;-148.88;65.27;75159.78;5036050;28;20025;-82
2022/05/11 00:33:28;;;;;;;9.23;4.60;;;;;;;-148.88;64.96;75149.63;5018098;28;20025;-83
2022/05/11 00:35:53;;;;;;;9.23;4.13;;;;;;;-148.88;65.83;75155.72;5036226;28;20052;-82
2022/05/11 00:38:22;;;;;;;9.30;4.22;;;;;;;-148.88;65.70;75151.66;5018139;28;20397;-83
2022/05/11 00:40:52;;;;;;;10.63;4.43;;;;;;;-148.88;66.13;75155.72;5018766;28;20043;-82
2022/05/11 00:43:31;;;;;;;6.72;3.85;;;;;;;-148.88;65.77;75149.63;5018199;28;20067;-81
2022/05/11 00:46:13;;;;;;;8.07;4.38;;;;;;;-148.88;66.67;75143.53;5018098;28;20047;-82
2022/05/11 00:51:32;;;;;;;7.28;4.05;;;;;;;-148.88;67.05;75141.50;5036131;28;20028;-83
2022/05/11 00:53:57;;;;;;;9.70;5.00;;;;;;;-148.88;67.79;75143.53;5017878;28;20021;-82
2022/05/11 00:56:24;;;;;;;7.75;4.90;;;;;;;-148.88;68.69;75135.41;5016574;28;20083;-83
2022/05/11 00:58:55;;;;;;;8.27;5.13;;;;;;;-148.88;68.43;75147.59;5018580;28;20026;-82
2022/05/11 01:01:20;;;;;;;7.70;5.05;;;;;;;-148.88;69.02;75147.59;5035505;28;20025;-82
2022/05/11 01:04:00;;;;;;;9.35;5.43;;;;;;;-148.88;69.62;75149.63;5035616;28;20024;-84
2022/05/11 01:09:03;;;;;;;9.50;5.97;;;;;;;-148.88;70.27;75143.53;5058508;22;20053;-84
2022/05/11 01:11:29;;;;;;;10.15;6.28;;;;;;;-148.88;70.99;75139.47;5020767;28;20041;-84
2022/05/11 01:13:54;;;;;;;8.45;6.05;;;;;;;-148.88;71.77;75139.47;5036192;28;20024;-82
2022/05/11 01:16:21;;;;;;;9.82;7.28;;;;;;;-148.88;70.85;75135.41;5035816;28;20033;-83
2022/05/11 01:18:47;;;;;;;9.73;6.28;;;;;;;-148.88;71.28;75137.44;5035772;28;20026;-83
2022/05/11 01:21:12;;;;;;;10.13;6.43;;;;;;;-148.88;70.48;75135.41;5017920;28;20032;-83
2022/05/11 01:24:00;;;;;;;12.50;5.43;;;;;;;-148.88;70.22;75135.41;5038620;28;20033;-84
2022/05/11 01:26:26;;;;;;;10.18;6.13;;;;;;;-148.88;69.89;75131.34;5037198;28;20413;-84
2022/05/11 01:28:54;;;;;;;14.15;5.60;;;;;;;-148.88;69.65;75133.38;5035927;28;20027;-83
2022/05/11 01:31:20;;;;;;;12.48;4.90;;;;;;;-148.88;69.56;75131.34;5035099;28;20052;-83
2022/05/11 01:33:48;;;;;;;9.25;5.30;;;;;;;-148.88;69.38;75131.34;5035270;28;20025;-83
2022/05/11 01:36:25;;;;;;;8.73;5.32;;;;;;;-148.88;69.15;75127.28;5035466;28;20052;-84
2022/05/11 01:38:52;;;;;;;8.57;5.63;;;;;;;-148.88;68.84;75127.28;5017653;28;20021;-83
2022/05/11 01:41:25;;;;;;;8.52;5.00;;;;;;;-148.88;68.69;75125.25;5034951;28;20028;-84
2022/05/11 01:43:51;;;;;;;9.02;4.93;;;;;;;-148.88;68.04;75113.06;5035256;28;20405;-84
2022/05/11 01:46:18;;;;;;;8.73;4.53;;;;;;;-148.88;67.99;75129.31;5035131;28;20076;-83
2022/05/11 01:48:43;;;;;;;7.38;4.40;;;;;;;-148.88;67.51;75125.25;5034964;28;20029;-83
2022/05/11 01:51:11;;;;;;;7.70;4.80;;;;;;;-148.88;67.21;75119.16;5034711;28;20032;-82
2022/05/11 01:53:36;;;;;;;9.18;4.15;;;;;;;-148.88;66.33;75115.09;5034909;28;20025;-83
2022/05/11 01:56:01;;;;;;;5.72;4.22;;;;;;;-148.88;66.40;75113.06;5035362;28;20025;-83
2022/05/11 01:58:27;;;;;;;5.57;3.53;;;;;;;-148.88;66.43;75111.03;5034981;28;20021;-83
2022/05/11 02:00:52;;;;;;;6.65;4.00;;;;;;;-148.88;65.41;75104.94;5034854;28;20025;-84
2022/05/11 02:03:20;;;;;;;6.38;3.65;;;;;;;-148.88;66.00;75111.03;5034879;28;20027;-83
2022/05/11 02:08:31;;;;;;;6.68;3.88;;;;;;;-148.88;65.63;75111.03;5035118;28;20087;-83
2022/05/11 02:10:57;;;;;;;5.85;3.58;;;;;;;-148.88;65.38;75119.16;5035900;28;20033;-83
2022/05/11 02:13:22;;;;;;;7.10;3.85;;;;;;;-148.88;64.96;75113.06;5035725;28;20025;-84
2022/05/11 02:15:49;;;;;;;8.15;3.85;;;;;;;-148.88;65.36;75111.03;5017163;28;20083;-82
2022/05/11 02:18:15;;;;;;;6.80;3.65;;;;;;;-148.88;65.14;75111.03;5034026;28;20029;-84
2022/05/11 02:20:40;;;;;;;5.28;3.90;;;;;;;-148.88;65.33;75111.03;5034527;28;20364;-83
2022/05/11 02:23:05;;;;;;;6.03;3.55;;;;;;;-148.88;64.71;75111.03;5034445;28;20108;-83
2022/05/11 02:25:31;;;;;;;6.35;3.45;;;;;;;-148.88;64.78;75115.09;5034500;28;20033;-83
2022/05/11 02:27:56;;;;;;;4.93;3.22;;;;;;;-148.88;64.48;75106.97;5034321;28;20017;-83
2022/05/11 02:30:26;;;;;;;8.43;3.17;;;;;;;-148.88;63.82;75119.16;5034024;28;20055;-83
2022/05/11 02:32:52;;;;;;;6.05;3.35;;;;;;;-148.88;64.12;75106.97;5034409;28;20033;-83
2022/05/11 02:35:18;;;;;;;5.38;3.28;;;;;;;-148.88;64.33;75117.13;5016203;28;20029;-83
2022/05/11 02:37:53;;;;;;;8.27;3.63;;;;;;;-148.88;63.05;75106.97;5017049;28;20096;-80
2022/05/11 02:40:24;;;;;;;6.63;3.15;;;;;;;-148.88;63.28;75115.09;5016977;28;20033;-82
2022/05/11 02:42:50;;;;;;;5.80;3.33;;;;;;;-148.88;63.17;75111.03;5035096;28;20025;-82
2022/05/11 02:45:16;;;;;;;5.57;3.00;;;;;;;-148.88;62.99;75104.94;5035185;28;20021;-83
2022/05/11 02:47:44;;;;;;;6.53;3.38;;;;;;;-148.88;63.45;75111.03;5035438;28;20036;-83
2022/05/11 02:50:11;;;;;;;3.95;2.97;;;;;;;-148.88;62.92;75104.94;5035140;28;20364;-82
2022/05/11 02:52:37;;;;;;;4.53;3.00;;;;;;;-148.88;62.95;75104.94;5035468;28;20136;-83
2022/05/11 02:55:03;;;;;;;7.45;3.30;;;;;;;-148.88;62.77;75106.97;5017565;28;20025;-83
2022/05/11 02:57:28;;;;;;;4.88;2.78;;;;;;;-148.88;62.45;75106.97;5033124;28;20402;-83
2022/05/11 02:59:54;;;;;;;4.18;2.88;;;;;;;-148.88;62.81;75106.97;5033862;28;20471;-81
2022/05/11 03:02:20;;;;;;;5.20;3.15;;;;;;;-148.88;62.50;75111.03;5034271;28;20018;-82
2022/05/11 03:04:46;;;;;;;6.50;3.28;;;;;;;-148.88;62.23;75100.88;5033776;28;20099;-84
2022/05/11 03:07:12;;;;;;;12.80;3.17;;;;;;;-148.88;62.81;75100.88;5034007;28;20446;-84
2022/05/11 03:09:37;;;;;;;5.15;3.50;;;;;;;-148.88;62.63;75098.84;5033227;28;20071;-85
2022/05/11 03:12:03;;;;;;;5.97;3.70;;;;;;;-148.88;63.38;75090.72;5015431;28;20029;-84
2022/05/11 03:14:29;;;;;;;5.75;3.67;;;;;;;-148.88;63.65;75090.72;5034138;28;20076;-83
2022/05/11 03:16:54;;;;;;;4.93;3.40;;;;;;;-148.88;63.42;75088.72;5033099;28;20034;-84
2022/05/11 03:19:19;;;;;;;7.13;3.67;;;;;;;-148.88;62.88;75074.50;5036005;28;20017;-83
2022/05/11 03:21:45;;;;;;;5.70;3.15;;;;;;;-148.88;63.03;75070.44;5020368;28;20061;-82
2022/05/11 03:24:10;;;;;;;6.70;3.60;;;;;;;-148.88;63.38;75072.47;5038320;28;20021;-82
2022/05/11 03:26:38;;;;;;;5.47;3.60;;;;;;;-148.88;63.65;75072.47;5004198;28;20029;-82
2022/05/11 03:29:05;;;;;;;7.63;4.45;;;;;;;-148.88;64.36;75082.63;5038756;28;20485;-83
2022/05/11 03:31:35;;;;;;;7.50;4.40;;;;;;;-148.88;64.56;75078.56;5038153;28;20030;-87
2022/05/11 03:36:44;;;;;;;7.32;4.78;;;;;;;-148.88;65.43;75088.72;5037235;28;20544;-84
2022/05/11 03:39:10;;;;;;;9.25;5.43;;;;;;;-148.88;66.66;75096.81;5036658;28;20025;-83
2022/05/11 03:41:36;;;;;;;9.07;5.50;;;;;;;-148.88;66.92;75098.84;5019202;28;20033;-83
2022/05/11 03:44:02;;;;;;;8.90;6.10;;;;;;;-148.88;67.95;75096.81;5037418;28;20017;-85
2022/05/11 03:46:28;;;;;;;11.70;7.50;;;;;;;-148.88;69.07;75092.78;5036957;28;20570;-86
2022/05/11 03:48:53;;;;;;;10.23;7.88;;;;;;;-148.88;69.10;75090.72;5018941;28;20112;-85
2022/05/11 03:51:19;;;;;;;11.63;8.00;;;;;;;-148.88;69.48;75086.69;5037150;28;20048;-86
2022/05/11 03:53:44;;;;;;;14.18;8.73;;;;;;;-148.88;69.89;75078.56;5037053;28;20086;-84
2022/05/11 03:56:10;;;;;;;12.60;8.43;;;;;;;-148.88;69.80;75070.44;5037112;28;20025;-85
2022/05/11 03:58:35;;;;;;;14.13;9.13;;;;;;;-148.88;70.18;75060.28;5037405;28;20025;-85
2022/05/11 04:01:00;;;;;;;13.63;8.65;;;;;;;-148.88;70.31;75068.41;5019499;28;20033;-85
2022/05/11 04:03:25;;;;;;;14.20;9.18;;;;;;;-148.88;69.77;75054.19;5037346;28;20025;-84
2022/05/11 04:05:52;;;;;;;11.77;8.18;;;;;;;-148.88;70.28;75062.31;5019331;28;20021;-84
2022/05/11 04:08:17;;;;;;;11.07;8.02;;;;;;;-148.88;70.36;75058.25;5037667;28;20091;-85
2022/05/11 04:10:42;;;;;;;18.67;8.52;;;;;;;-148.88;70.32;75058.25;5038239;28;20017;-83
2022/05/11 04:13:08;;;;;;;15.18;9.20;;;;;;;-148.88;70.84;75062.31;5038438;28;20091;-84
2022/05/11 04:15:33;;;;;;;11.95;8.52;;;;;;;-148.88;70.80;75064.34;5038188;28;20026;-84
2022/05/11 04:17:58;;;;;;;14.38;8.63;;;;;;;-148.88;70.81;75062.31;5037036;28;20068;-86
2022/05/11 04:20:24;;;;;;;11.93;8.02;;;;;;;-148.88;70.48;75058.25;5036626;28;20032;-85
2022/05/11 04:22:50;;;;;;;14.98;8.77;;;;;;;-148.88;70.45;75058.25;5036442;28;20135;-85
2022/05/11 04:25:16;;;;;;;15.27;9.32;;;;;;;-148.88;70.36;75058.25;5037055;28;20026;-85
2022/05/11 04:27:46;;;;;;;15.60;8.88;;;;;;;-148.88;70.53;75054.19;5019548;28;20048;-83
2022/05/11 04:30:14;;;;;;;12.18;8.32;;;;;;;-148.88;70.83;75048.09;5037528;28;20501;-84
2022/05/11 04:32:40;;;;;;;11.57;8.47;;;;;;;-148.88;70.85;75048.09;5018969;28;20029;-84
2022/05/11 04:35:06;;;;;;;13.98;9.75;;;;;;;-148.88;71.13;75048.09;5037826;28;20066;-83
2022/05/11 04:37:32;;;;;;;13.32;9.52;;;;;;;-148.88;71.08;75042.00;5019053;28;20048;-84
2022/05/11 04:39:57;;;;;;;12.95;8.98;;;;;;;-148.88;71.92;75039.97;5037679;28;20022;-83
2022/05/11 04:42:22;;;;;;;15.80;10.75;;;;;;;-148.88;72.17;75033.88;5037885;28;20026;-85
2022/05/11 04:44:48;;;;;;;14.15;10.00;;;;;;;-148.88;72.40;75042.00;5037876;28;20041;-83
2022/05/11 04:47:15;;;;;;;15.38;10.35;;;;;;;-148.88;72.57;75037.94;5036734;28;20100;-83
2022/05/11 04:49:41;;;;;;;16.63;9.65;;;;;;;-148.88;72.29;75029.81;5037252;28;20025;-84
2022/05/11 04:52:13;;;;;;;16.10;10.23;;;;;;;-148.88;72.33;75029.81;5036938;28;20112;-83
2022/05/11 04:54:48;;;;;;;16.00;9.75;;;;;;;-148.88;72.17;75029.81;5018933;28;20138;-85
2022/05/11 04:57:14;;;;;;;16.98;10.35;;;;;;;-148.88;72.57;75021.69;5036736;28;20104;-83
2022/05/11 04:59:40;;;;;;;18.58;11.05;;;;;;;-148.88;71.93;75013.56;5038087;28;20091;-83
2022/05/11 05:02:07;;;;;;;16.60;11.00;;;;;;;-148.88;72.46;75017.63;5039467;28;20479;-83
2022/05/11 05:04:33;;;;;;;15.98;10.82;;;;;;;-148.88;72.95;75019.66;5037380;28;20034;-84
2022/05/11 05:06:58;;;;;;;16.38;10.73;;;;;;;-148.88;72.57;75013.56;5036929;28;20035;-84
2022/05/11 05:09:24;;;;;;;21.23;10.45;;;;;;;-148.88;71.74;75009.50;5037640;28;20049;-84
2022/05/11 05:11:49;;;;;;;15.77;9.80;;;;;;;-148.88;72.03;75009.50;5036702;28;20022;-84
2022/05/11 05:14:15;;;;;;;15.40;9.32;;;;;;;-148.88;72.02;75009.50;5019118;28;20032;-83
2022/05/11 05:16:41;;;;;;;17.25;10.25;;;;;;;-148.88;71.93;75005.44;5035245;28;20053;-87
2022/05/11 05:19:07;;;;;;;16.17;9.95;;;;;;;-148.88;71.98;74997.31;5034942;28;20028;-86
2022/05/11 05:21:33;;;;;;;16.75;10.13;;;;;;;-148.88;71.79;74985.13;5034919;28;20025;-86
2022/05/11 05:23:59;;;;;;;18.52;11.27;;;;;;;-148.88;71.94;74985.13;5035058;28;20022;-85
2022/05/11 05:26:24;;;;;;;15.10;10.93;;;;;;;-148.88;71.73;74968.88;5035199;28;20025;-86
2022/05/11 05:31:34;;;;;;;18.50;11.00;;;;;;;-148.88;71.66;74964.81;5034846;28;20033;-86
2022/05/11 05:33:59;;;;;;;21.15;10.57;;;;;;;-148.88;71.85;74956.69;5034627;28;20025;-87
2022/05/11 05:36:35;;;;;;;16.83;10.20;;;;;;;-148.88;71.87;74950.59;5034578;28;20017;-86
2022/05/11 05:39:01;;;;;;;18.35;10.77;;;;;;;-148.88;71.62;74946.53;5016732;28;20025;-88
2022/05/11 05:41:27;;;;;;;15.43;11.20;;;;;;;-148.88;71.67;74944.53;5034190;28;20025;-85
2022/05/11 05:43:53;;;;;;;16.35;10.65;;;;;;;-148.88;70.89;74940.47;5034963;28;20021;-87
2022/05/11 05:46:19;;;;;;;18.50;10.68;;;;;;;-148.88;70.89;74936.41;5034921;28;20445;-86
2022/05/11 05:48:45;;;;;;;17.30;11.68;;;;;;;-148.88;70.98;74930.31;5034963;28;20053;-87
2022/05/11 05:51:13;;;;;;;18.40;11.07;;;;;;;-148.88;71.37;74930.31;5034957;28;20025;-88
2022/05/11 05:53:41;;;;;;;14.18;10.02;;;;;;;-148.88;70.88;74928.28;5034965;28;20095;-86
2022/05/11 05:56:08;;;;;;;16.20;9.80;;;;;;;-148.88;70.70;74924.22;5034517;28;20081;-86
2022/05/11 05:58:34;;;;;;;18.08;10.48;;;;;;;-148.88;70.59;74922.19;5034511;28;20028;-87
2022/05/11 06:01:00;;;;;;;13.65;10.20;;;;;;;-148.88;69.93;74916.09;5034308;28;20021;-86
2022/05/11 06:03:29;;;;;;;19.27;9.60;;;;;;;-148.88;69.81;74920.16;5034651;28;20067;-86
2022/05/11 06:05:54;;;;;;;16.08;10.30;;;;;;;-148.88;70.04;74907.97;5034533;28;20021;-86
2022/05/11 06:08:21;;;;;;;15.10;10.35;;;;;;;-148.88;69.72;74910.00;5033979;28;20055;-87
2022/05/11 06:10:47;;;;;;;16.67;10.02;;;;;;;-148.88;69.70;74907.97;5034587;28;20539;-87
2022/05/11 06:13:14;;;;;;;17.20;10.40;;;;;;;-148.88;70.26;74899.84;5033968;28;20047;-86
2022/05/11 06:15:41;;;;;;;17.17;10.02;;;;;;;-148.88;70.77;74893.75;5034458;28;20029;-87
2022/05/11 06:18:08;;;;;;;13.75;9.82;;;;;;;-148.88;69.06;74883.59;5033830;28;20022;-87
2022/05/11 06:20:34;;;;;;;13.85;10.00;;;;;;;-148.88;68.74;74871.41;5034077;28;20048;-87
2022/05/11 06:23:01;;;;;;;14.90;9.35;;;;;;;-148.88;68.64;74861.25;5034046;28;20036;-89
2022/05/11 06:25:27;;;;;;;15.48;9.25;;;;;;;-148.88;67.63;74851.09;5034033;28;20025;-88
2022/05/11 06:27:52;;;;;;;14.93;9.60;;;;;;;-148.88;67.41;74847.03;5034052;28;20385;-86
2022/05/11 06:30:17;;;;;;;17.45;8.98;;;;;;;-148.88;66.46;74857.19;5034067;28;20175;-88
2022/05/11 06:32:43;;;;;;;13.40;8.80;;;;;;;-148.88;65.76;74853.13;5034527;28;20029;-86
2022/05/11 06:35:09;;;;;;;12.30;8.40;;;;;;;-148.88;66.20;74855.16;5033848;28;20026;-86
2022/05/11 06:37:40;;;;;;;15.48;8.80;;;;;;;-148.88;65.98;74845.00;5034103;28;20033;-87
2022/05/11 06:40:06;;;;;;;12.45;8.38;;;;;;;-148.88;65.20;74828.75;5033844;28;20529;-87
2022/05/11 06:42:31;;;;;;;12.43;8.43;;;;;;;-148.88;64.87;74816.56;5034194;28;20029;-87
2022/05/11 06:44:57;;;;;;;15.60;8.18;;;;;;;-148.88;64.80;74802.38;5033740;28;20017;-87
2022/05/11 06:47:22;;;;;;;12.60;8.00;;;;;;;-148.88;64.30;74794.25;5033390;28;20461;-86
2022/05/11 06:49:47;;;;;;;12.65;7.55;;;;;;;-148.88;63.68;74784.09;5033783;28;20029;-86
2022/05/11 06:52:14;;;;;;;11.32;7.35;;;;;;;-148.88;63.88;74782.06;5033860;28;20035;-87
2022/05/11 07:00:08;;;;;;;9.50;6.45;;;;;;;-148.88;61.34;74737.38;5033618;28;20498;-87
2022/05/11 07:02:37;;;;;;;11.40;5.18;;;;;;;-148.88;57.86;74721.13;5033720;28;20025;-87
2022/05/11 07:05:03;;;;;;;7.78;4.90;;;;;;;-148.88;56.90;74700.84;5033464;28;20448;-87
2022/05/11 07:07:28;;;;;;;5.75;4.25;;;;;;;-148.88;57.84;74684.59;5056972;22;20045;-83
2022/05/11 07:09:54;;;;;;;9.20;5.10;;;;;;;-148.88;58.21;74676.47;5034451;28;20036;-84
2022/05/11 07:12:24;;;;;;;6.90;4.70;;;;;;;-148.88;57.94;74664.28;5035765;28;20155;-83
2022/05/11 07:14:53;;;;;;;9.75;4.88;;;;;;;-148.88;54.81;74660.22;5015672;28;20029;-84
2022/05/11 07:17:30;;;;;;;9.45;4.75;;;;;;;-148.88;56.65;74635.84;5015505;28;20025;-84
2022/05/11 07:19:56;;;;;;;10.50;5.80;;;;;;;-148.88;55.44;74639.91;5016198;28;20021;-84
2022/05/11 07:22:21;;;;;;;10.18;5.70;;;;;;;-148.88;54.80;74627.72;5033625;28;20386;-81
2022/05/11 07:24:46;;;;;;;10.10;5.35;;;;;;;-148.88;56.31;74615.53;5033809;28;20061;-83
2022/05/11 07:27:12;;;;;;;9.48;5.55;;;;;;;-148.88;57.10;74607.41;5033434;28;20393;-85
2022/05/11 07:29:37;;;;;;;9.38;5.95;;;;;;;-148.88;56.01;74599.28;5033725;28;20026;-82
2022/05/11 07:32:03;;;;;;;7.63;4.72;;;;;;;-148.88;53.74;74593.22;5015587;28;20029;-84
2022/05/11 07:34:28;;;;;;;10.63;5.22;;;;;;;-148.88;54.83;74587.13;5015845;28;20447;-84
2022/05/11 07:36:54;;;;;;;6.22;4.57;;;;;;;-148.88;55.19;74583.06;5015839;28;20450;-84
2022/05/11 07:39:23;;;;;;;7.72;5.20;;;;;;;-148.88;54.77;74570.88;5034016;28;20435;-84
2022/05/11 07:41:49;;;;;;;7.28;4.70;;;;;;;-148.88;53.97;74564.78;5015811;28;20029;-84
2022/05/11 07:44:15;;;;;;;8.38;4.13;;;;;;;-148.88;52.48;74552.59;5015858;28;20013;-83
2022/05/11 07:46:44;;;;;;;8.70;3.40;;;;;;;-148.88;50.12;74536.34;5016356;28;20124;-82
2022/05/11 07:49:10;;;;;;;7.63;3.35;;;;;;;-148.88;52.17;74518.06;5034516;28;20036;-83
2022/05/11 07:51:36;;;;;;;5.20;3.17;;;;;;;-148.88;50.22;74503.84;5034185;28;20030;-83
2022/05/11 07:54:02;;;;;;;8.80;3.58;;;;;;;-148.88;49.48;74499.81;5033003;28;20053;-85
2022/05/11 08:01:56;;;;;;;6.55;3.40;;;;;;;-148.88;49.69;74487.63;5033842;28;20031;-84
2022/05/11 08:04:21;;;;;;;6.47;3.70;;;;;;;-148.88;49.47;74479.50;5033480;28;20018;-83
2022/05/11 08:06:46;;;;;;;10.25;3.58;;;;;;;-148.88;49.43;74481.53;5019655;28;20428;-83
2022/05/11 08:09:13;;;;;;;6.20;3.58;;;;;;;-148.88;49.98;74479.50;5038196;28;20021;-83
2022/05/11 08:11:38;;;;;;;7.18;3.60;;;;;;;-148.88;49.21;74477.47;5019132;28;20021;-84
2022/05/11 08:14:04;;;;;;;9.95;3.40;;;;;;;-148.88;49.11;74467.31;5019894;28;20017;-84
2022/05/11 08:16:29;;;;;;;10.35;3.50;;;;;;;-148.88;50.47;74436.84;5018951;28;20494;-84
2022/05/11 08:18:54;;;;;;;7.57;3.20;;;;;;;-148.88;51.03;74416.53;5037001;28;20033;-84
2022/05/11 08:21:19;;;;;;;6.75;3.22;;;;;;;-148.88;50.00;74416.53;5036839;28;20022;-84
2022/05/11 08:23:46;;;;;;;9.35;3.35;;;;;;;-148.88;49.51;74408.44;5018877;28;20021;-84
2022/05/11 08:26:11;;;;;;;7.57;3.42;;;;;;;-148.88;48.60;74408.44;5019293;28;20144;-84
2022/05/11 08:28:37;;;;;;;7.72;3.40;;;;;;;-148.88;47.98;74396.25;5019133;28;20029;-85
2022/05/11 08:33:47;;;;;;;6.50;3.45;;;;;;;-148.88;48.50;74382.03;5036623;28;20108;-83
2022/05/11 08:36:19;;;;;;;7.38;2.92;;;;;;;-148.88;48.76;74367.81;5018041;28;20036;-83
2022/05/11 08:38:48;;;;;;;5.47;3.35;;;;;;;-148.88;49.34;74349.53;5035673;28;20026;-83
2022/05/11 08:41:42;;;;;;;7.13;3.08;;;;;;;-148.88;48.56;74345.47;5018384;28;20025;-84
2022/05/11 08:44:22;;;;;;;5.82;3.38;;;;;;;-148.88;47.57;74343.44;5036122;28;20026;-85
2022/05/11 08:47:08;;;;;;;6.88;3.55;;;;;;;-148.88;48.28;74331.25;5035454;28;20061;-84
2022/05/11 08:50:11;;;;;;;9.18;4.32;;;;;;;-148.88;46.29;74339.38;5036311;28;20026;-85
2022/05/11 08:52:57;;;;;;;7.95;4.32;;;;;;;-148.88;46.63;74331.25;5018687;28;20029;-84
2022/05/11 08:55:41;;;;;;;9.23;4.80;;;;;;;-148.88;46.66;74327.19;5018356;28;20052;-83
2022/05/11 08:58:18;;;;;;;7.55;4.57;;;;;;;-148.88;47.16;74313.00;5018361;28;20021;-84
2022/05/11 09:00:44;;;;;;;6.53;4.25;;;;;;;-148.88;47.59;74282.53;5036038;28;20025;-85
2022/05/11 09:03:39;;;;;;;7.60;4.18;;;;;;;-148.88;47.69;74258.16;5018119;28;20045;-83
2022/05/11 09:06:18;;;;;;;9.75;4.82;;;;;;;-148.88;48.99;74229.75;5035431;28;20025;-85
2022/05/11 09:08:44;;;;;;;7.78;4.30;;;;;;;-148.88;47.40;74209.44;5034891;28;20029;-83
2022/05/11 09:11:15;;;;;;;7.72;4.38;;;;;;;-148.88;47.87;74181.00;5017173;28;20025;-85
2022/05/11 09:13:42;;;;;;;8.63;5.15;;;;;;;-148.88;45.58;74217.56;5035287;28;20029;-85
2022/05/11 09:16:18;;;;;;;7.45;4.70;;;;;;;-148.88;45.00;74185.06;5016935;28;20402;-84
2022/05/11 09:18:44;;;;;;;8.23;4.93;;;;;;;-148.88;44.49;74185.06;5017571;28;20027;-85
2022/05/11 09:21:29;;;;;;;7.13;5.18;;;;;;;-148.88;43.67;74231.78;5017189;28;20093;-86
2022/05/11 09:24:23;;;;;;;10.13;5.05;;;;;;;-148.88;43.93;74217.56;5017797;28;20029;-85
2022/05/11 09:26:59;;;;;;;;;;;;;;;-148.88;45.23;74221.63;5035590;28;20025;-84
2022/05/11 09:29:38;;;;;;;7.72;4.57;;;;;;;-148.88;45.35;74197.25;5035479;28;19962;-86
2022/05/11 09:32:31;;;;;;;10.80;5.10;;;;;;;-148.88;46.94;74150.56;5034843;28;20167;-86
2022/05/11 09:35:17;;;;;;;7.15;4.43;;;;;;;-148.88;45.72;74138.38;5017477;28;20037;-85
2022/05/11 09:37:44;;;;;;;9.73;4.85;;;;;;;-148.88;46.02;74132.28;5017480;28;20025;-85
2022/05/11 09:40:22;;;;;;;9.73;4.50;;;;;;;-148.88;46.96;74136.34;5035402;28;20100;-85
2022/05/11 09:42:49;;;;;;;12.57;5.82;;;;;;;-148.88;43.47;74144.47;5017049;28;20029;-85
2022/05/11 09:45:33;;;;;;;9.63;5.43;;;;;;;-148.88;44.07;74091.69;5017955;28;20397;-87
2022/05/11 09:48:12;;;;;;;11.15;5.25;;;;;;;-148.88;43.62;74081.53;5017307;28;20026;-83
2022/05/11 09:50:38;;;;;;;10.65;4.97;;;;;;;-148.88;42.98;74071.38;5018342;28;20064;-85
2022/05/11 09:53:36;;;;;;;7.40;5.35;;;;;;;-148.88;42.24;74093.72;5018013;28;20028;-85
2022/05/11 09:56:18;;;;;;;10.48;5.47;;;;;;;-148.88;42.37;74097.78;5016957;28;20133;-86
2022/05/11 09:58:43;;;;;;;12.27;6.00;;;;;;;-148.88;42.46;74099.78;5035314;28;20526;-85
2022/05/11 10:01:17;;;;;;;11.68;5.47;;;;;;;-148.88;42.22;74079.50;5017259;28;20064;-85
2022/05/11 10:04:11;;;;;;;;;;;;;;;-148.88;41.68;74079.50;5035357;28;20013;-85
2022/05/11 10:06:49;;;;;;;7.18;4.65;;;;;;;-148.88;41.82;74047.00;5026706;28;19909;-84
2022/05/11 10:09:15;;;;;;;10.63;4.97;;;;;;;-148.88;40.23;74044.97;5017811;28;20029;-86
2022/05/11 10:11:47;;;;;;;8.85;4.53;;;;;;;-148.88;40.54;74047.00;5017993;28;20052;-87
2022/05/11 10:22:45;;;;;;;7.97;5.20;;;;;;;-148.88;39.57;74006.41;5034968;28;20025;-85
2022/05/11 10:25:30;;;;;;;10.15;5.38;;;;;;;-148.88;40.60;74032.78;5035582;28;20021;-85
2022/05/11 10:28:01;;;;;;;8.63;4.63;;;;;;;-148.88;40.56;73961.72;5016162;28;20033;-85
2022/05/11 10:30:32;;;;;;;9.52;4.50;;;;;;;-148.88;40.75;73953.63;5016680;28;20025;-86
2022/05/11 10:33:23;;;;;;;9.30;4.53;;;;;;;-148.88;39.75;73953.63;5034664;28;20032;-87
2022/05/11 10:36:08;;;;;;;8.75;4.28;;;;;;;-148.88;39.37;73941.44;5016017;28;20033;-85
2022/05/11 10:38:39;;;;;;;13.45;4.47;;;;;;;-148.88;37.86;73917.06;5033786;28;20022;-86
2022/05/11 10:41:12;;;;;;;9.18;4.28;;;;;;;-148.88;39.21;73980.00;5033788;28;20320;-86
2022/05/11 10:44:07;;;;;;;10.20;4.28;;;;;;;-148.88;39.45;73984.06;5016072;28;20021;-86
2022/05/11 10:46:58;;;;;;;8.07;4.40;;;;;;;-148.88;39.65;73939.41;5016537;28;20029;-85
2022/05/11 10:49:46;;;;;;;10.55;4.50;;;;;;;-148.88;39.38;73913.00;5015709;28;20064;-87
2022/05/11 10:52:43;;;;;;;10.40;4.63;;;;;;;-148.88;39.77;73896.75;5017771;28;20175;-87
2022/05/11 10:55:42;;;;;;;10.05;4.70;;;;;;;-148.88;39.12;73969.84;5016029;28;20379;-85
2022/05/11 10:58:14;;;;;;;8.68;5.20;;;;;;;-148.88;39.04;73951.59;5016726;28;20034;-86
2022/05/11 11:00:51;;;;;;;8.60;4.40;;;;;;;-148.88;40.71;73913.00;5016036;28;20478;-87
2022/05/11 11:03:47;;;;;;;8.38;4.63;;;;;;;-148.88;39.43;73961.72;5016519;28;20025;-86
2022/05/11 11:09:47;;;;;;;7.65;4.85;;;;;;;-148.88;39.30;73935.34;5033694;28;20044;-86
2022/05/11 11:12:39;;;;;;;7.80;4.57;;;;;;;-148.88;39.85;73933.31;5016926;28;20033;-87
2022/05/11 11:15:10;;;;;;;8.38;4.80;;;;;;;-148.88;39.55;73969.84;5016118;28;20029;-87
2022/05/11 11:17:36;;;;;;;5.90;4.00;;;;;;;-148.88;40.28;73921.13;5016190;28;20025;-86
2022/05/11 11:20:05;;;;;;;9.45;4.38;;;;;;;-148.88;41.24;73884.59;5016116;28;20049;-86
2022/05/11 11:23:02;;;;;;;9.32;4.90;;;;;;;-148.88;40.23;73910.97;5033616;28;20053;-86
2022/05/11 11:25:43;;;;;;;8.52;3.78;;;;;;;-148.88;40.59;73927.22;5016977;28;20033;-86
2022/05/11 11:28:12;;;;;;;8.90;3.50;;;;;;;-148.88;39.15;73900.81;5033857;28;20044;-87
2022/05/11 11:31:00;;;;;;;7.18;3.80;;;;;;;-148.88;39.22;73876.47;5017196;28;20021;-87
2022/05/11 11:33:30;;;;;;;6.30;3.47;;;;;;;-148.88;39.57;73815.56;5017013;28;20048;-86
2022/05/11 11:36:27;;;;;;;5.57;3.40;;;;;;;-148.88;39.31;73797.28;5020525;28;20025;-86
2022/05/11 11:38:56;;;;;;;9.23;3.10;;;;;;;-148.88;38.97;73841.94;5019149;28;20406;-86
2022/05/11 11:41:28;;;;;;;7.28;3.80;;;;;;;-148.88;38.43;73848.03;5019781;28;20112;-86
2022/05/11 11:44:03;;;;;;;5.15;3.00;;;;;;;-148.88;39.80;73949.56;5020280;28;20475;-85
2022/05/11 11:46:38;;;;;;;5.32;3.00;;;;;;;-148.88;40.10;73982.03;5020606;28;20025;-87
2022/05/11 11:49:07;;;;;;;5.10;2.58;;;;;;;-148.88;39.22;73945.50;5020710;28;20025;-87
2022/05/11 11:51:50;;;;;;;5.80;3.10;;;;;;;-148.88;38.56;73896.75;5019606;28;20068;-86
2022/05/11 11:54:37;;;;;;;6.28;2.83;;;;;;;-148.88;37.96;73888.66;5020072;28;20116;-86
2022/05/11 11:57:22;;;;;;;4.55;2.72;;;;;;;-148.88;39.84;73823.69;5021060;28;20150;-86
2022/05/11 11:59:58;;;;;;;8.52;3.17;;;;;;;-148.88;38.35;73821.66;5010667;28;20057;-85
2022/05/11 12:02:33;;;;;;;6.80;3.10;;;;;;;-148.88;37.69;73821.66;5040880;28;20025;-86
2022/05/11 12:05:12;;;;;;;8.15;3.13;;;;;;;-148.88;37.43;73793.22;5022041;28;20031;-85
2022/05/11 12:17:00;;;;;;;8.68;3.10;;;;;;;-148.88;39.35;73821.66;5038367;28;20037;-87